sensor_id;sensor_type;location;lat;lon;timestamp;pressure;altitude;pressure_sealevel;temperature;humidity
30682;BME280;17439;48.092;11.842;2023-03-21T00:02:07;95626.13;;;10.52;60.29
30682;BME280;17439;48.092;11.842;2023-03-21T00:04:34;95626.94;;;10.53;60.44
30682;BME280;17439;48.092;11.842;2023-03-21T00:07:16;95626.94;;;10.53;60.58
30682;BME280;17439;48.092;11.842;2023-03-21T00:09:43;95627.72;;;10.53;60.44
30682;BME280;17439;48.092;11.842;2023-03-21T00:12:09;95619.28;;;10.55;60.51
30682;BME280;17439;48.092;11.842;2023-03-21T00:14:36;95620.09;;;10.56;60.64
30682;BME280;17439;48.092;11.842;2023-03-21T00:17:03;95613.56;;;10.57;60.55
30682;BME280;17439;48.092;11.842;2023-03-21T00:19:30;95618.69;;;10.58;60.65
30682;BME280;17439;48.092;11.842;2023-03-21T00:21:56;95616.47;;;10.60;60.73
30682;BME280;17439;48.092;11.842;2023-03-21T00:24:34;95606.41;;;10.61;60.69
30682;BME280;17439;48.092;11.842;2023-03-21T00:27:01;95615.06;;;10.63;60.72
30682;BME280;17439;48.092;11.842;2023-03-21T00:29:48;95607.41;;;10.65;60.60
30682;BME280;17439;48.092;11.842;2023-03-21T00:32:17;95609.81;;;10.66;60.58
30682;BME280;17439;48.092;11.842;2023-03-21T00:34:46;95608.72;;;10.67;60.63
30682;BME280;17439;48.092;11.842;2023-03-21T00:37:33;95610.59;;;10.67;60.62
30682;BME280;17439;48.092;11.842;2023-03-21T00:40:00;95605.19;;;10.67;60.72
30682;BME280;17439;48.092;11.842;2023-03-21T00:42:28;95600.69;;;10.62;60.30
30682;BME280;17439;48.092;11.842;2023-03-21T00:44:55;95607.59;;;10.68;60.70
30682;BME280;17439;48.092;11.842;2023-03-21T00:47:21;95601.84;;;10.70;60.60
30682;BME280;17439;48.092;11.842;2023-03-21T00:49:51;95605.06;;;10.72;60.73
30682;BME280;17439;48.092;11.842;2023-03-21T00:52:17;95606.66;;;10.73;60.72
30682;BME280;17439;48.092;11.842;2023-03-21T00:54:59;95595.81;;;10.73;60.86
30682;BME280;17439;48.092;11.842;2023-03-21T00:57:26;95588.47;;;10.74;60.85
30682;BME280;17439;48.092;11.842;2023-03-21T01:00:06;95592.81;;;10.75;60.81
30682;BME280;17439;48.092;11.842;2023-03-21T01:02:34;95588.69;;;10.77;60.89
30682;BME280;17439;48.092;11.842;2023-03-21T01:05:00;95588.69;;;10.77;61.03
30682;BME280;17439;48.092;11.842;2023-03-21T01:07:27;95582.94;;;10.79;60.91
30682;BME280;17439;48.092;11.842;2023-03-21T01:09:54;95577.22;;;10.80;60.85
30682;BME280;17439;48.092;11.842;2023-03-21T01:12:20;95584.22;;;10.81;60.96
30682;BME280;17439;48.092;11.842;2023-03-21T01:14:47;95586.63;;;10.83;60.86
30682;BME280;17439;48.092;11.842;2023-03-21T01:17:13;95581.22;;;10.83;61.09
30682;BME280;17439;48.092;11.842;2023-03-21T01:19:40;95577.41;;;10.84;61.05
30682;BME280;17439;48.092;11.842;2023-03-21T01:22:18;95572.75;;;10.84;61.03
30682;BME280;17439;48.092;11.842;2023-03-21T01:24:45;95572.09;;;10.79;60.78
30682;BME280;17439;48.092;11.842;2023-03-21T01:27:22;95575.16;;;10.86;61.10
30682;BME280;17439;48.092;11.842;2023-03-21T01:29:49;95571.84;;;10.89;61.06
30682;BME280;17439;48.092;11.842;2023-03-21T01:32:16;95572.63;;;10.89;61.13
30682;BME280;17439;48.092;11.842;2023-03-21T01:34:42;95569.91;;;10.89;61.13
30682;BME280;17439;48.092;11.842;2023-03-21T01:37:09;95566.91;;;10.91;61.06
30682;BME280;17439;48.092;11.842;2023-03-21T01:39:44;95563.88;;;10.93;61.02
30682;BME280;17439;48.092;11.842;2023-03-21T01:42:14;95564.19;;;10.91;60.86
30682;BME280;17439;48.092;11.842;2023-03-21T01:45:06;95559.59;;;10.92;60.72
30682;BME280;17439;48.092;11.842;2023-03-21T01:47:52;95556.56;;;10.93;61.03
30682;BME280;17439;48.092;11.842;2023-03-21T01:50:22;95554.63;;;10.94;60.85
30682;BME280;17439;48.092;11.842;2023-03-21T01:52:57;95555.44;;;10.94;60.87
30682;BME280;17439;48.092;11.842;2023-03-21T01:55:30;95548.13;;;10.95;60.88
30682;BME280;17439;48.092;11.842;2023-03-21T01:58:18;95551.13;;;10.93;60.84
30682;BME280;17439;48.092;11.842;2023-03-21T02:01:00;95547.59;;;10.93;60.91
30682;BME280;17439;48.092;11.842;2023-03-21T02:03:45;95550.31;;;10.93;60.96
30682;BME280;17439;48.092;11.842;2023-03-21T02:06:33;95533.25;;;10.92;61.07
30682;BME280;17439;48.092;11.842;2023-03-21T02:09:12;95533.56;;;10.91;61.11
30682;BME280;17439;48.092;11.842;2023-03-21T02:11:40;95532.75;;;10.90;61.20
30682;BME280;17439;48.092;11.842;2023-03-21T02:14:13;95534.97;;;10.88;60.99
30682;BME280;17439;48.092;11.842;2023-03-21T02:17:09;95527.16;;;10.86;61.10
30682;BME280;17439;48.092;11.842;2023-03-21T02:22:36;95527.97;;;10.87;61.26
30682;BME280;17439;48.092;11.842;2023-03-21T02:25:56;95527.97;;;10.87;61.24
30682;BME280;17439;48.092;11.842;2023-03-21T02:28:31;95527.78;;;10.83;61.31
30682;BME280;17439;48.092;11.842;2023-03-21T02:31:18;95532.69;;;10.81;61.82
30682;BME280;17439;48.092;11.842;2023-03-21T02:39:23;95533.00;;;10.80;62.03
30682;BME280;17439;48.092;11.842;2023-03-21T02:45:10;95530.59;;;10.78;62.07
30682;BME280;17439;48.092;11.842;2023-03-21T02:47:48;95531.44;;;10.79;62.17
30682;BME280;17439;48.092;11.842;2023-03-21T02:50:23;95536.03;;;10.78;62.07
30682;BME280;17439;48.092;11.842;2023-03-21T02:52:53;95539.25;;;10.80;62.16
30682;BME280;17439;48.092;11.842;2023-03-21T02:55:23;95528.03;;;10.73;61.83
30682;BME280;17439;48.092;11.842;2023-03-21T02:58:03;95529.50;;;10.79;62.08
30682;BME280;17439;48.092;11.842;2023-03-21T03:00:44;95531.13;;;10.80;62.25
30682;BME280;17439;48.092;11.842;2023-03-21T03:03:18;95525.69;;;10.80;62.13
30682;BME280;17439;48.092;11.842;2023-03-21T03:06:19;95527.59;;;10.80;61.85
30682;BME280;17439;48.092;11.842;2023-03-21T03:11:50;95526.00;;;10.79;62.01
30682;BME280;17439;48.092;11.842;2023-03-21T03:17:29;95534.94;;;10.79;61.56
30682;BME280;17439;48.092;11.842;2023-03-21T03:20:23;95527.09;;;10.78;61.46
30682;BME280;17439;48.092;11.842;2023-03-21T03:23:12;95527.91;;;10.78;61.97
30682;BME280;17439;48.092;11.842;2023-03-21T03:25:46;95526.63;;;10.76;61.89
30682;BME280;17439;48.092;11.842;2023-03-21T03:28:20;95532.84;;;10.76;62.15
30682;BME280;17439;48.092;11.842;2023-03-21T03:30:50;95531.75;;;10.77;62.36
30682;BME280;17439;48.092;11.842;2023-03-21T03:33:48;95522.47;;;10.78;62.36
30682;BME280;17439;48.092;11.842;2023-03-21T03:36:15;95526.78;;;10.79;62.52
30682;BME280;17439;48.092;11.842;2023-03-21T03:39:07;95526.00;;;10.79;62.23
30682;BME280;17439;48.092;11.842;2023-03-21T03:41:45;95518.66;;;10.79;62.25
30682;BME280;17439;48.092;11.842;2023-03-21T03:44:36;95518.03;;;10.82;62.48
30682;BME280;17439;48.092;11.842;2023-03-21T03:47:10;95525.06;;;10.83;62.24
30682;BME280;17439;48.092;11.842;2023-03-21T03:49:59;95520.13;;;10.85;62.34
30682;BME280;17439;48.092;11.842;2023-03-21T03:52:33;95521.75;;;10.86;62.04
30682;BME280;17439;48.092;11.842;2023-03-21T03:55:13;95519.50;;;10.88;62.14
30682;BME280;17439;48.092;11.842;2023-03-21T03:57:43;95519.50;;;10.88;62.20
30682;BME280;17439;48.092;11.842;2023-03-21T04:00:12;95518.38;;;10.89;62.20
30682;BME280;17439;48.092;11.842;2023-03-21T04:02:46;95512.16;;;10.89;62.08
30682;BME280;17439;48.092;11.842;2023-03-21T04:05:18;95516.50;;;10.90;62.22
30682;BME280;17439;48.092;11.842;2023-03-21T04:07:45;95517.28;;;10.91;62.15
30682;BME280;17439;48.092;11.842;2023-03-21T04:10:12;95517.59;;;10.89;62.23
30682;BME280;17439;48.092;11.842;2023-03-21T04:12:40;95512.97;;;10.89;62.17
30682;BME280;17439;48.092;11.842;2023-03-21T04:15:25;95516.50;;;10.90;62.12
30682;BME280;17439;48.092;11.842;2023-03-21T04:17:58;95513.78;;;10.90;62.13
30682;BME280;17439;48.092;11.842;2023-03-21T04:20:25;95520.00;;;10.91;62.02
30682;BME280;17439;48.092;11.842;2023-03-21T04:23:03;95521.84;;;10.81;61.61
30682;BME280;17439;48.092;11.842;2023-03-21T04:25:33;95514.72;;;10.85;62.02
30682;BME280;17439;48.092;11.842;2023-03-21T04:28:03;95517.91;;;10.87;61.99
30682;BME280;17439;48.092;11.842;2023-03-21T04:30:43;95520.13;;;10.85;62.08
30682;BME280;17439;48.092;11.842;2023-03-21T04:33:26;95520.13;;;10.85;62.24
30682;BME280;17439;48.092;11.842;2023-03-21T04:35:55;95514.72;;;10.85;62.23
30682;BME280;17439;48.092;11.842;2023-03-21T04:38:24;95510.38;;;10.84;62.22
30682;BME280;17439;48.092;11.842;2023-03-21T04:40:51;95516.94;;;10.83;62.29
30682;BME280;17439;48.092;11.842;2023-03-21T04:43:20;95510.38;;;10.84;62.35
30682;BME280;17439;48.092;11.842;2023-03-21T04:45:47;95513.91;;;10.85;62.37
30682;BME280;17439;48.092;11.842;2023-03-21T04:48:13;95517.41;;;10.85;62.24
30682;BME280;17439;48.092;11.842;2023-03-21T04:50:40;95519.34;;;10.85;62.37
30682;BME280;17439;48.092;11.842;2023-03-21T04:53:07;95518.53;;;10.84;62.48
30682;BME280;17439;48.092;11.842;2023-03-21T04:55:33;95511.53;;;10.83;62.49
30682;BME280;17439;48.092;11.842;2023-03-21T04:58:00;95512.31;;;10.84;62.35
30682;BME280;17439;48.092;11.842;2023-03-21T05:00:26;95508.50;;;10.85;62.31
30682;BME280;17439;48.092;11.842;2023-03-21T05:02:53;95504.66;;;10.86;62.36
30682;BME280;17439;48.092;11.842;2023-03-21T05:05:20;95512.00;;;10.85;62.25
30682;BME280;17439;48.092;11.842;2023-03-21T05:07:46;95507.69;;;10.84;62.36
30682;BME280;17439;48.092;11.842;2023-03-21T05:10:13;95501.16;;;10.85;62.38
30682;BME280;17439;48.092;11.842;2023-03-21T05:12:40;95503.06;;;10.85;62.50
30682;BME280;17439;48.092;11.842;2023-03-21T05:15:07;95503.06;;;10.85;62.43
30682;BME280;17439;48.092;11.842;2023-03-21T05:17:35;95496.03;;;10.84;62.60
30682;BME280;17439;48.092;11.842;2023-03-21T05:20:02;95500.06;;;10.86;62.65
30682;BME280;17439;48.092;11.842;2023-03-21T05:22:29;95500.06;;;10.86;62.60
30682;BME280;17439;48.092;11.842;2023-03-21T05:24:56;95500.06;;;10.86;62.44
30682;BME280;17439;48.092;11.842;2023-03-21T05:27:40;95504.34;;;10.87;62.58
30682;BME280;17439;48.092;11.842;2023-03-21T05:30:16;95499.72;;;10.88;62.29
30682;BME280;17439;48.092;11.842;2023-03-21T05:32:45;95508.34;;;10.90;62.60
30682;BME280;17439;48.092;11.842;2023-03-21T05:35:12;95513.47;;;10.92;62.71
30682;BME280;17439;48.092;11.842;2023-03-21T05:37:39;95508.03;;;10.92;62.74
30682;BME280;17439;48.092;11.842;2023-03-21T05:40:07;95509.31;;;10.94;62.76
30682;BME280;17439;48.092;11.842;2023-03-21T05:42:36;95505.50;;;10.95;62.87
30682;BME280;17439;48.092;11.842;2023-03-21T05:45:12;95509.50;;;10.98;62.95
30682;BME280;17439;48.092;11.842;2023-03-21T05:47:38;95517.03;;;11.01;62.83
30682;BME280;17439;48.092;11.842;2023-03-21T05:50:07;95511.00;;;11.04;63.04
30682;BME280;17439;48.092;11.842;2023-03-21T05:52:34;95515.75;;;11.07;63.12
30682;BME280;17439;48.092;11.842;2023-03-21T05:55:08;95516.75;;;11.11;63.21
30682;BME280;17439;48.092;11.842;2023-03-21T05:57:35;95516.13;;;11.14;63.09
30682;BME280;17439;48.092;11.842;2023-03-21T06:00:05;95521.41;;;11.19;63.01
30682;BME280;17439;48.092;11.842;2023-03-21T06:02:40;95518.06;;;11.22;62.89
30682;BME280;17439;48.092;11.842;2023-03-21T06:05:22;95517.44;;;11.25;62.80
30682;BME280;17439;48.092;11.842;2023-03-21T06:07:49;95509.78;;;11.28;62.67
30682;BME280;17439;48.092;11.842;2023-03-21T06:10:15;95514.59;;;11.31;62.63
30682;BME280;17439;48.092;11.842;2023-03-21T06:12:45;95515.09;;;11.33;62.65
30682;BME280;17439;48.092;11.842;2023-03-21T06:15:40;95521.31;;;11.33;62.52
30682;BME280;17439;48.092;11.842;2023-03-21T06:18:13;95520.69;;;11.36;62.48
30682;BME280;17439;48.092;11.842;2023-03-21T06:20:50;95519.25;;;11.39;62.59
30682;BME280;17439;48.092;11.842;2023-03-21T06:23:16;95523.56;;;11.40;62.82
30682;BME280;17439;48.092;11.842;2023-03-21T06:25:43;95528.38;;;11.43;62.85
30682;BME280;17439;48.092;11.842;2023-03-21T06:28:10;95530.47;;;11.46;62.91
30682;BME280;17439;48.092;11.842;2023-03-21T06:30:39;95542.31;;;11.50;62.94
30682;BME280;17439;48.092;11.842;2023-03-21T06:33:13;95533.53;;;11.53;62.81
30682;BME280;17439;48.092;11.842;2023-03-21T06:35:41;95533.69;;;11.57;62.87
30682;BME280;17439;48.092;11.842;2023-03-21T06:38:09;95528.09;;;11.62;62.83
30682;BME280;17439;48.092;11.842;2023-03-21T06:40:37;95538.03;;;11.67;62.69
30682;BME280;17439;48.092;11.842;2023-03-21T06:43:04;95528.16;;;11.71;62.71
30682;BME280;17439;48.092;11.842;2023-03-21T06:45:31;95533.75;;;11.74;62.75
30682;BME280;17439;48.092;11.842;2023-03-21T06:47:58;95538.53;;;11.77;62.77
30682;BME280;17439;48.092;11.842;2023-03-21T06:50:37;95534.38;;;11.80;62.78
30682;BME280;17439;48.092;11.842;2023-03-21T06:53:04;95544.28;;;11.85;62.92
30682;BME280;17439;48.092;11.842;2023-03-21T06:55:38;95540.94;;;11.88;62.88
30682;BME280;17439;48.092;11.842;2023-03-21T06:58:05;95540.81;;;11.93;62.92
30682;BME280;17439;48.092;11.842;2023-03-21T07:00:32;95542.59;;;11.97;62.88
30682;BME280;17439;48.092;11.842;2023-03-21T07:02:59;95546.75;;;12.04;62.58
30682;BME280;17439;48.092;11.842;2023-03-21T07:05:25;95536.53;;;12.09;62.51
30682;BME280;17439;48.092;11.842;2023-03-21T07:07:52;95537.50;;;12.13;62.55
30682;BME280;17439;48.092;11.842;2023-03-21T07:10:20;95538.16;;;12.19;61.99
30682;BME280;17439;48.092;11.842;2023-03-21T07:12:53;95535.28;;;12.24;61.96
30682;BME280;17439;48.092;11.842;2023-03-21T07:15:23;95538.63;;;12.30;61.41
30682;BME280;17439;48.092;11.842;2023-03-21T07:17:50;95538.78;;;12.33;61.35
30682;BME280;17439;48.092;11.842;2023-03-21T07:20:17;95535.13;;;12.38;61.32
30682;BME280;17439;48.092;11.842;2023-03-21T07:22:44;95538.31;;;12.40;61.49
30682;BME280;17439;48.092;11.842;2023-03-21T07:25:10;95539.28;;;12.44;61.72
30682;BME280;17439;48.092;11.842;2023-03-21T07:27:38;95542.63;;;12.50;61.74
30682;BME280;17439;48.092;11.842;2023-03-21T07:30:07;95533.50;;;12.55;61.48
30682;BME280;17439;48.092;11.842;2023-03-21T07:32:34;95537.19;;;12.59;61.38
30682;BME280;17439;48.092;11.842;2023-03-21T07:35:01;95542.13;;;12.65;61.34
30682;BME280;17439;48.092;11.842;2023-03-21T07:37:27;95536.53;;;12.70;60.93
30682;BME280;17439;48.092;11.842;2023-03-21T07:39:55;95539.88;;;12.76;60.59
30682;BME280;17439;48.092;11.842;2023-03-21T07:42:23;95538.44;;;12.79;60.19
30682;BME280;17439;48.092;11.842;2023-03-21T07:44:57;95542.59;;;12.85;60.46
30682;BME280;17439;48.092;11.842;2023-03-21T07:47:23;95537.78;;;12.91;60.50
30682;BME280;17439;48.092;11.842;2023-03-21T07:49:50;95537.59;;;12.96;60.38
30682;BME280;17439;48.092;11.842;2023-03-21T07:52:17;95536.31;;;13.02;60.61
30682;BME280;17439;48.092;11.842;2023-03-21T07:54:43;95534.22;;;13.07;60.38
30682;BME280;17439;48.092;11.842;2023-03-21T07:57:10;95529.06;;;13.15;60.15
30682;BME280;17439;48.092;11.842;2023-03-21T07:59:38;95534.00;;;13.21;60.25
30682;BME280;17439;48.092;11.842;2023-03-21T08:02:05;95533.50;;;13.28;59.91
30682;BME280;17439;48.092;11.842;2023-03-21T08:04:32;95530.31;;;13.35;59.87
30682;BME280;17439;48.092;11.842;2023-03-21T08:06:59;95537.19;;;13.41;59.42
30682;BME280;17439;48.092;11.842;2023-03-21T08:09:26;95532.81;;;13.49;59.64
30682;BME280;17439;48.092;11.842;2023-03-21T08:11:54;95535.84;;;13.47;57.95
30682;BME280;17439;48.092;11.842;2023-03-21T08:14:20;95530.66;;;13.63;59.32
30682;BME280;17439;48.092;11.842;2023-03-21T08:16:47;95529.03;;;13.71;58.50
30682;BME280;17439;48.092;11.842;2023-03-21T08:19:13;95524.19;;;13.76;58.33
30682;BME280;17439;48.092;11.842;2023-03-21T08:21:40;95524.78;;;13.82;57.92
30682;BME280;17439;48.092;11.842;2023-03-21T08:24:07;95527.00;;;13.89;57.73
30682;BME280;17439;48.092;11.842;2023-03-21T08:26:33;95522.63;;;13.96;57.99
30682;BME280;17439;48.092;11.842;2023-03-21T08:29:00;95527.22;;;14.05;57.96
30682;BME280;17439;48.092;11.842;2023-03-21T08:31:26;95531.34;;;14.11;57.72
30682;BME280;17439;48.092;11.842;2023-03-21T08:33:53;95530.34;;;14.15;57.54
30682;BME280;17439;48.092;11.842;2023-03-21T08:36:21;95527.44;;;14.21;56.94
30682;BME280;17439;48.092;11.842;2023-03-21T08:38:48;95530.75;;;14.26;56.57
30682;BME280;17439;48.092;11.842;2023-03-21T08:41:14;95529.75;;;14.31;56.86
30682;BME280;17439;48.092;11.842;2023-03-21T08:43:41;95529.88;;;14.34;56.36
30682;BME280;17439;48.092;11.842;2023-03-21T08:46:07;95528.09;;;14.39;55.93
30682;BME280;17439;48.092;11.842;2023-03-21T08:48:34;95526.44;;;14.46;56.10
30682;BME280;17439;48.092;11.842;2023-03-21T08:51:01;95524.28;;;14.52;55.95
30682;BME280;17439;48.092;11.842;2023-03-21T08:53:27;95519.91;;;14.60;56.19
30682;BME280;17439;48.092;11.842;2023-03-21T08:55:54;95514.41;;;14.68;56.60
30682;BME280;17439;48.092;11.842;2023-03-21T08:58:20;95511.56;;;14.77;56.11
30682;BME280;17439;48.092;11.842;2023-03-21T09:00:47;95519.34;;;14.87;56.17
30682;BME280;17439;48.092;11.842;2023-03-21T09:03:13;95513.34;;;14.94;55.57
30682;BME280;17439;48.092;11.842;2023-03-21T09:05:40;95512.09;;;15.04;55.86
30682;BME280;17439;48.092;11.842;2023-03-21T09:08:07;95514.28;;;15.11;54.91
30682;BME280;17439;48.092;11.842;2023-03-21T09:10:33;95515.78;;;15.20;54.72
30682;BME280;17439;48.092;11.842;2023-03-21T09:13:00;95514.53;;;15.30;55.04
30682;BME280;17439;48.092;11.842;2023-03-21T09:15:26;95519.13;;;15.38;54.47
30682;BME280;17439;48.092;11.842;2023-03-21T09:17:53;95511.94;;;15.46;54.43
30682;BME280;17439;48.092;11.842;2023-03-21T09:20:22;95512.50;;;15.52;53.56
30682;BME280;17439;48.092;11.842;2023-03-21T09:22:50;95508.09;;;15.59;53.54
30682;BME280;17439;48.092;11.842;2023-03-21T09:25:17;95503.16;;;15.65;53.77
30682;BME280;17439;48.092;11.842;2023-03-21T09:27:44;95511.16;;;15.70;52.94
30682;BME280;17439;48.092;11.842;2023-03-21T09:30:13;95504.81;;;15.78;52.87
30682;BME280;17439;48.092;11.842;2023-03-21T09:32:40;95508.09;;;15.84;53.25
30682;BME280;17439;48.092;11.842;2023-03-21T09:35:06;95507.97;;;15.93;53.24
30682;BME280;17439;48.092;11.842;2023-03-21T09:37:33;95502.38;;;16.02;53.11
30682;BME280;17439;48.092;11.842;2023-03-21T09:40:00;95498.25;;;16.08;52.87
30682;BME280;17439;48.092;11.842;2023-03-21T09:42:34;95493.81;;;16.16;50.44
30682;BME280;17439;48.092;11.842;2023-03-21T09:45:20;95492.88;;;16.24;50.75
30682;BME280;17439;48.092;11.842;2023-03-21T09:47:49;95496.72;;;16.35;53.04
30682;BME280;17439;48.092;11.842;2023-03-21T09:52:45;95493.69;;;16.53;53.21
30682;BME280;17439;48.092;11.842;2023-03-21T09:55:21;95486.59;;;16.64;50.48
30682;BME280;17439;48.092;11.842;2023-03-21T10:00:43;95489.94;;;16.73;50.22
30682;BME280;17439;48.092;11.842;2023-03-21T10:03:19;95489.25;;;16.76;48.15
30682;BME280;17439;48.092;11.842;2023-03-21T10:05:47;95484.78;;;16.84;51.64
30682;BME280;17439;48.092;11.842;2023-03-21T10:08:27;95493.44;;;16.86;47.86
30682;BME280;17439;48.092;11.842;2023-03-21T10:11:00;95483.50;;;16.94;47.82
30682;BME280;17439;48.092;11.842;2023-03-21T10:13:31;95482.88;;;17.00;48.15
30682;BME280;17439;48.092;11.842;2023-03-21T10:16:02;95481.47;;;17.07;49.75
30682;BME280;17439;48.092;11.842;2023-03-21T10:18:36;95478.50;;;17.12;50.13
30682;BME280;17439;48.092;11.842;2023-03-21T10:21:05;95476.19;;;17.14;50.47
30682;BME280;17439;48.092;11.842;2023-03-21T10:23:31;95472.22;;;17.11;48.41
30682;BME280;17439;48.092;11.842;2023-03-21T10:26:04;95468.75;;;17.14;47.24
30682;BME280;17439;48.092;11.842;2023-03-21T10:28:36;95461.34;;;17.15;44.59
30682;BME280;17439;48.092;11.842;2023-03-21T10:31:20;95459.22;;;17.24;49.52
30682;BME280;17439;48.092;11.842;2023-03-21T10:33:48;95456.94;;;17.26;49.06
30682;BME280;17439;48.092;11.842;2023-03-21T10:36:25;95453.75;;;17.24;47.69
30682;BME280;17439;48.092;11.842;2023-03-21T10:38:54;95456.47;;;17.24;47.98
30682;BME280;17439;48.092;11.842;2023-03-21T10:41:21;95459.22;;;17.24;47.94
30682;BME280;17439;48.092;11.842;2023-03-21T10:44:10;95453.22;;;17.18;47.08
30682;BME280;17439;48.092;11.842;2023-03-21T10:46:37;95444.19;;;17.18;48.32
30682;BME280;17439;48.092;11.842;2023-03-21T10:49:06;95449.59;;;17.14;46.29
30682;BME280;17439;48.092;11.842;2023-03-21T10:51:35;95452.75;;;17.16;47.32
30682;BME280;17439;48.092;11.842;2023-03-21T10:54:07;95446.59;;;17.19;47.71
30682;BME280;17439;48.092;11.842;2023-03-21T10:56:36;95454.56;;;17.25;47.28
30682;BME280;17439;48.092;11.842;2023-03-21T10:59:05;95442.88;;;17.28;48.04
30682;BME280;17439;48.092;11.842;2023-03-21T11:01:41;95447.19;;;17.29;47.04
30682;BME280;17439;48.092;11.842;2023-03-21T11:04:17;95444.03;;;17.27;45.87
30682;BME280;17439;48.092;11.842;2023-03-21T11:06:51;95443.69;;;17.28;45.07
30682;BME280;17439;48.092;11.842;2023-03-21T11:09:19;95446.84;;;17.30;47.52
30682;BME280;17439;48.092;11.842;2023-03-21T11:12:17;95445.28;;;17.29;47.27
30682;BME280;17439;48.092;11.842;2023-03-21T11:14:48;95432.88;;;17.19;48.54
30682;BME280;17439;48.092;11.842;2023-03-21T11:19:58;95430.16;;;17.19;44.79
30682;BME280;17439;48.092;11.842;2023-03-21T11:22:30;95424.59;;;17.16;46.08
30682;BME280;17439;48.092;11.842;2023-03-21T11:25:06;95430.84;;;17.16;46.22
30682;BME280;17439;48.092;11.842;2023-03-21T11:27:33;95423.88;;;17.19;47.34
30682;BME280;17439;48.092;11.842;2023-03-21T11:30:02;95422.28;;;17.18;47.44
30682;BME280;17439;48.092;11.842;2023-03-21T11:34:58;95416.56;;;17.23;46.50
30682;BME280;17439;48.092;11.842;2023-03-21T11:37:29;95413.81;;;17.23;47.06
30682;BME280;17439;48.092;11.842;2023-03-21T11:42:47;95402.59;;;17.28;46.64
30682;BME280;17439;48.092;11.842;2023-03-21T11:45:23;95400.72;;;17.32;45.09
30682;BME280;17439;48.092;11.842;2023-03-21T11:47:53;95396.13;;;17.36;45.43
30682;BME280;17439;48.092;11.842;2023-03-21T11:53:14;95399.03;;;17.44;43.61
30682;BME280;17439;48.092;11.842;2023-03-21T11:56:01;95382.13;;;17.41;41.74
30682;BME280;17439;48.092;11.842;2023-03-21T11:58:41;95380.28;;;17.46;43.32
30682;BME280;17439;48.092;11.842;2023-03-21T12:01:26;95379.22;;;17.50;45.06
30682;BME280;17439;48.092;11.842;2023-03-21T12:06:48;95369.03;;;17.51;44.80
30682;BME280;17439;48.092;11.842;2023-03-21T12:09:34;95363.13;;;17.49;44.31
30682;BME280;17439;48.092;11.842;2023-03-21T12:15:16;95342.38;;;17.32;40.52
30682;BME280;17439;48.092;11.842;2023-03-21T12:20:44;95339.81;;;17.39;41.83
30682;BME280;17439;48.092;11.842;2023-03-21T12:28:49;95330.53;;;17.44;44.16
30682;BME280;17439;48.092;11.842;2023-03-21T12:31:45;95331.97;;;17.37;42.06
30682;BME280;17439;48.092;11.842;2023-03-21T12:37:38;95324.03;;;17.32;42.67
30682;BME280;17439;48.092;11.842;2023-03-21T12:45:58;95312.50;;;17.43;43.84
30682;BME280;17439;48.092;11.842;2023-03-21T12:48:34;95315.00;;;17.51;42.87
30682;BME280;17439;48.092;11.842;2023-03-21T12:51:04;95310.06;;;17.57;44.92
30682;BME280;17439;48.092;11.842;2023-03-21T12:53:47;95311.78;;;17.65;45.52
30682;BME280;17439;48.092;11.842;2023-03-21T12:56:23;95309.22;;;17.72;43.83
30682;BME280;17439;48.092;11.842;2023-03-21T12:59:11;95301.13;;;17.80;45.18
30682;BME280;17439;48.092;11.842;2023-03-21T13:01:41;95298.63;;;17.90;43.03
30682;BME280;17439;48.092;11.842;2023-03-21T13:04:20;95292.19;;;17.83;43.44
30682;BME280;17439;48.092;11.842;2023-03-21T13:06:54;95288.59;;;17.98;41.57
30682;BME280;17439;48.092;11.842;2023-03-21T13:09:44;95287.81;;;17.98;36.98
30682;BME280;17439;48.092;11.842;2023-03-21T13:12:35;95273.84;;;18.06;39.36
30682;BME280;17439;48.092;11.842;2023-03-21T13:18:10;95277.28;;;18.23;39.79
30682;BME280;17439;48.092;11.842;2023-03-21T13:20:45;95278.16;;;18.27;39.53
30682;BME280;17439;48.092;11.842;2023-03-21T13:23:14;95268.47;;;18.33;41.41
30682;BME280;17439;48.092;11.842;2023-03-21T13:25:45;95262.66;;;18.38;40.38
30682;BME280;17439;48.092;11.842;2023-03-21T13:28:18;95255.00;;;18.47;39.48
30682;BME280;17439;48.092;11.842;2023-03-21T13:30:45;95261.94;;;18.64;41.15
30682;BME280;17439;48.092;11.842;2023-03-21T13:33:15;95254.72;;;18.79;40.97
30682;BME280;17439;48.092;11.842;2023-03-21T13:35:43;95262.84;;;18.95;40.30
30682;BME280;17439;48.092;11.842;2023-03-21T13:38:20;95254.84;;;19.13;39.47
30682;BME280;17439;48.092;11.842;2023-03-21T13:40:56;95246.00;;;19.27;38.29
30682;BME280;17439;48.092;11.842;2023-03-21T13:43:54;95240.34;;;19.43;39.21
30682;BME280;17439;48.092;11.842;2023-03-21T13:59:11;95215.25;;;20.16;38.37
30682;BME280;17439;48.092;11.842;2023-03-21T14:01:40;95215.66;;;20.18;37.39
30682;BME280;17439;48.092;11.842;2023-03-21T14:04:13;95210.91;;;20.15;36.25
30682;BME280;17439;48.092;11.842;2023-03-21T14:07:04;95213.22;;;20.09;37.98
30682;BME280;17439;48.092;11.842;2023-03-21T14:09:36;95212.41;;;20.09;38.33
30682;BME280;17439;48.092;11.842;2023-03-21T14:12:08;95217.13;;;20.05;36.48
30682;BME280;17439;48.092;11.842;2023-03-21T14:14:39;95210.03;;;20.07;38.54
30682;BME280;17439;48.092;11.842;2023-03-21T14:17:24;95209.63;;;20.05;36.70
30682;BME280;17439;48.092;11.842;2023-03-21T14:20:07;95208.91;;;20.12;36.97
30682;BME280;17439;48.092;11.842;2023-03-21T14:22:40;95212.50;;;20.16;36.31
30682;BME280;17439;48.092;11.842;2023-03-21T14:25:11;95208.59;;;20.17;37.22
30682;BME280;17439;48.092;11.842;2023-03-21T14:27:41;95199.16;;;20.22;36.40
30682;BME280;17439;48.092;11.842;2023-03-21T14:30:32;95203.47;;;20.16;35.43